Time;durP1;ratioP1;P1;durP2;ratioP2;P2;SDS_P1;SDS_P2;PMS_P1;PMS_P2;Temp;Humidity;BMP_temperature;BMP_pressure;BME280_temperature;BME280_humidity;BME280_pressure;Samples;Min_cycle;Max_cycle;Signal;HPM_P1;HPM_P2
2022/08/17 00:00:50;;;;;;;29.67;25.55;;;19.60;99.90;;;;;;5093305;27;20039;-90
2022/08/17 00:03:17;;;;;;;31.38;26.30;;;20.20;99.90;;;;;;5077343;27;20134;-89
2022/08/17 00:05:51;;;;;;;30.27;24.98;;;19.60;99.90;;;;;;5092030;27;20051;-90
2022/08/17 00:08:19;;;;;;;27.67;24.67;;;19.50;99.90;;;;;;5092774;27;20039;-89
2022/08/17 00:10:46;;;;;;;35.17;26.08;;;19.50;99.90;;;;;;5093278;27;20441;-90
2022/08/17 00:13:24;;;;;;;33.08;25.10;;;19.50;99.90;;;;;;5092939;28;20403;-89
2022/08/17 00:15:51;;;;;;;29.92;25.30;;;19.50;99.90;;;;;;5092699;28;20082;-89
2022/08/17 00:18:17;;;;;;;32.08;24.25;;;19.40;99.90;;;;;;5075508;28;20126;-89
2022/08/17 00:20:43;;;;;;;34.83;24.83;;;19.40;99.90;;;;;;5093132;28;20054;-89
2022/08/17 00:23:15;;;;;;;35.80;26.65;;;19.40;99.90;;;;;;5109192;28;20057;-88
2022/08/17 00:25:45;;;;;;;27.98;23.55;;;19.30;99.90;;;;;;5092129;28;20039;-89
2022/08/17 00:28:14;;;;;;;30.77;24.85;;;19.30;99.90;;;;;;5075604;28;20875;-88
2022/08/17 00:30:47;;;;;;;33.22;26.73;;;19.20;99.90;;;;;;5092295;28;20035;-88
2022/08/17 00:33:22;;;;;;;34.33;27.45;;;19.20;99.90;;;;;;5091781;28;20159;-88
2022/08/17 00:35:49;;;;;;;34.88;27.35;;;19.20;99.90;;;;;;5108742;28;20097;-88
2022/08/17 00:38:14;;;;;;;37.88;29.15;;;19.20;99.90;;;;;;5092011;28;20043;-88
2022/08/17 00:40:48;;;;;;;32.03;26.42;;;19.20;99.90;;;;;;5075239;28;20059;-89
2022/08/17 00:43:26;;;;;;;33.28;26.05;;;19.10;99.90;;;;;;5092753;28;20405;-89
2022/08/17 00:45:53;;;;;;;31.02;23.77;;;19.10;99.90;;;;;;5092386;28;20039;-89
2022/08/17 00:48:19;;;;;;;34.08;26.30;;;19.10;99.90;;;;;;5092812;28;20401;-88
2022/08/17 00:50:59;;;;;;;31.67;25.85;;;19.10;99.90;;;;;;5092034;28;20152;-89
2022/08/17 00:53:29;;;;;;;34.88;27.10;;;19.10;99.90;;;;;;5092573;28;20126;-89
2022/08/17 00:55:56;;;;;;;37.05;28.30;;;19.00;99.90;;;;;;5092105;28;20035;-89
2022/08/17 00:58:22;;;;;;;31.45;25.67;;;19.00;99.90;;;;;;5092049;28;20045;-88
2022/08/17 01:00:49;;;;;;;28.80;24.67;;;18.90;99.90;;;;;;5075811;28;20133;-91
2022/08/17 01:03:26;;;;;;;30.40;25.10;;;18.90;99.90;;;;;;5075451;28;20372;-89
2022/08/17 01:05:57;;;;;;;29.33;24.80;;;19.00;99.90;;;;;;5092664;28;20066;-90
2022/08/17 01:08:28;;;;;;;33.17;27.05;;;18.80;99.90;;;;;;5092314;28;20171;-91
2022/08/17 01:10:57;;;;;;;34.33;26.60;;;18.90;99.90;;;;;;5092708;28;20031;-92
2022/08/17 01:13:24;;;;;;;34.58;26.80;;;18.90;99.90;;;;;;5091958;28;20031;-89
2022/08/17 01:16:03;;;;;;;30.95;26.55;;;18.80;99.90;;;;;;5092256;27;20054;-90
2022/08/17 01:18:30;;;;;;;32.92;28.50;;;18.80;99.90;;;;;;5095816;27;20054;-89
2022/08/17 01:21:00;;;;;;;32.88;25.60;;;18.80;99.90;;;;;;5096143;27;20655;-89
2022/08/17 01:23:27;;;;;;;29.27;25.58;;;18.80;99.90;;;;;;5112492;27;20516;-89
2022/08/17 01:26:00;;;;;;;32.50;26.42;;;18.80;99.90;;;;;;5079218;27;20043;-89
2022/08/17 01:28:32;;;;;;;29.02;25.77;;;18.70;99.90;;;;;;5095234;27;20110;-90
2022/08/17 01:31:02;;;;;;;33.55;26.77;;;18.70;99.90;;;;;;5095808;27;20069;-89
2022/08/17 01:33:28;;;;;;;29.20;23.05;;;18.70;99.90;;;;;;5095978;27;20047;-90
2022/08/17 01:35:53;;;;;;;34.22;25.55;;;18.60;99.90;;;;;;5078079;27;20080;-89
2022/08/17 01:38:19;;;;;;;30.02;24.52;;;18.60;99.90;;;;;;5096354;27;20039;-89
2022/08/17 01:40:50;;;;;;;28.15;23.70;;;18.60;99.90;;;;;;5095501;27;20124;-89
2022/08/17 01:43:31;;;;;;;30.67;23.27;;;18.40;99.90;;;;;;5095563;27;20039;-89
2022/08/17 01:45:59;;;;;;;32.30;25.85;;;18.50;99.90;;;;;;5095622;27;20075;-90
2022/08/17 01:48:30;;;;;;;36.45;27.52;;;18.50;99.90;;;;;;5112203;27;20107;-89
2022/08/17 01:50:56;;;;;;;32.78;24.90;;;18.50;99.90;;;;;;5112680;27;20042;-90
2022/08/17 01:53:28;;;;;;;30.65;22.95;;;18.50;99.90;;;;;;5078337;27;20130;-90
2022/08/17 01:56:01;;;;;;;30.08;25.33;;;18.40;99.90;;;;;;5095523;27;20079;-90
2022/08/17 01:58:27;;;;;;;37.85;29.45;;;18.40;99.90;;;;;;5094995;27;20520;-89
2022/08/17 02:00:54;;;;;;;35.92;27.75;;;18.70;99.90;;;;;;5095035;27;20051;-89
2022/08/17 02:03:21;;;;;;;34.67;26.85;;;18.60;99.90;;;;;;5095249;27;20042;-89
2022/08/17 02:05:48;;;;;;;38.53;27.02;;;18.40;99.90;;;;;;5078749;27;20103;-90
2022/08/17 02:08:19;;;;;;;36.55;25.60;;;18.40;99.90;;;;;;5094862;27;20077;-89
2022/08/17 02:10:45;;;;;;;33.10;26.20;;;18.40;99.90;;;;;;5078444;27;20505;-90
2022/08/17 02:13:11;;;;;;;51.08;30.13;;;19.10;99.90;;;;;;5078964;27;20074;-90
2022/08/17 02:15:37;;;;;;;113.90;28.95;;;18.40;99.90;;;;;;5078596;27;20043;-91
2022/08/17 02:18:05;;;;;;;95.85;27.40;;;18.40;99.90;;;;;;5078791;27;20042;-91
2022/08/17 02:20:30;;;;;;;75.40;25.90;;;18.40;99.90;;;;;;5095121;27;20102;-90
2022/08/17 02:23:00;;;;;;;35.40;25.98;;;18.40;99.90;;;;;;5095218;27;20066;-90
2022/08/17 02:25:27;;;;;;;57.63;25.17;;;19.00;99.90;;;;;;5095386;27;20075;-91
2022/08/17 02:27:53;;;;;;;31.13;22.90;;;18.40;99.90;;;;;;5094329;27;20456;-92
2022/08/17 02:30:19;;;;;;;30.23;21.75;;;19.20;99.90;;;;;;5077947;27;20043;-89
2022/08/17 02:32:45;;;;;;;39.95;22.85;;;18.40;99.90;;;;;;5077897;27;20045;-91
2022/08/17 02:35:12;;;;;;;40.10;22.17;;;18.40;99.90;;;;;;5077285;27;20051;-90
2022/08/17 02:37:38;;;;;;;34.97;19.08;;;18.40;99.90;;;;;;5077783;27;20135;-90
2022/08/17 02:40:05;;;;;;;38.38;20.25;;;18.80;99.90;;;;;;5077918;27;20408;-89
2022/08/17 02:42:37;;;;;;;21.55;18.50;;;18.40;99.90;;;;;;5077774;27;20475;-89
2022/08/17 02:45:06;;;;;;;21.75;18.70;;;18.30;99.90;;;;;;5094254;27;20047;-89
2022/08/17 02:47:32;;;;;;;29.90;20.88;;;18.30;99.90;;;;;;5094801;27;20135;-90
2022/08/17 02:49:58;;;;;;;25.27;19.63;;;18.30;99.90;;;;;;5077080;27;20134;-90
2022/08/17 02:52:30;;;;;;;28.40;20.33;;;18.30;99.90;;;;;;5094041;27;20448;-89
2022/08/17 02:54:56;;;;;;;31.35;21.83;;;19.10;99.90;;;;;;5078412;27;20509;-90
2022/08/17 02:57:22;;;;;;;32.45;23.40;;;18.30;99.90;;;;;;5077673;27;20054;-89
2022/08/17 02:59:47;;;;;;;39.58;23.52;;;18.60;99.90;;;;;;5077173;27;20092;-90
2022/08/17 03:02:13;;;;;;;39.20;23.25;;;18.40;99.90;;;;;;5076862;27;20109;-92
2022/08/17 03:04:39;;;;;;;38.67;23.40;;;18.30;99.90;;;;;;5077297;27;20039;-90
2022/08/17 03:07:05;;;;;;;40.03;21.80;;;18.30;99.90;;;;;;5077485;27;20043;-90
2022/08/17 03:09:31;;;;;;;31.60;19.70;;;18.40;99.90;;;;;;5078089;27;20103;-90
2022/08/17 03:12:11;;;;;;;29.58;19.92;;;18.40;99.90;;;;;;5077803;27;20035;-89
2022/08/17 03:14:39;;;;;;;25.60;19.85;;;18.40;99.90;;;;;;5076458;27;20054;-89
2022/08/17 03:17:05;;;;;;;21.13;18.05;;;18.40;99.90;;;;;;5094825;27;20130;-95
2022/08/17 03:19:31;;;;;;;24.00;19.17;;;18.40;99.90;;;;;;5093012;27;20518;-90
2022/08/17 03:21:58;;;;;;;23.38;18.67;;;18.30;99.90;;;;;;5093291;27;20134;-91
2022/08/17 03:24:23;;;;;;;28.38;19.40;;;18.40;99.90;;;;;;5093651;27;20078;-89
2022/08/17 03:26:49;;;;;;;24.33;20.40;;;18.30;99.90;;;;;;5076983;27;20078;-93
2022/08/17 03:29:17;;;;;;;35.38;20.05;;;18.60;99.90;;;;;;5077189;27;20039;-92
2022/08/17 03:31:47;;;;;;;25.83;20.38;;;18.30;99.90;;;;;;5094844;27;20073;-91
2022/08/17 03:34:15;;;;;;;43.97;20.00;;;18.30;99.90;;;;;;5094874;27;20127;-91
2022/08/17 03:36:41;;;;;;;27.30;19.88;;;18.30;99.90;;;;;;5094247;27;20039;-89
2022/08/17 03:39:07;;;;;;;32.47;20.02;;;18.30;99.90;;;;;;5094236;27;20055;-93
2022/08/17 03:41:33;;;;;;;29.55;18.63;;;18.60;99.90;;;;;;5094577;27;20130;-90
2022/08/17 03:43:59;;;;;;;26.80;18.67;;;18.30;99.90;;;;;;5094896;27;20530;-92
2022/08/17 03:57:29;;;;;;;29.35;20.25;;;18.20;99.90;;;;;;5096358;27;20043;-90
2022/08/17 03:59:55;;;;;;;46.40;17.88;;;18.70;99.90;;;;;;5093378;27;20053;-88
2022/08/17 04:02:32;;;;;;;32.13;17.40;;;18.20;99.90;;;;;;5095557;27;20042;-89
2022/08/17 04:04:58;;;;;;;21.92;17.25;;;18.20;99.90;;;;;;5113787;27;20126;-89
2022/08/17 04:07:28;;;;;;;22.85;16.73;;;18.20;99.90;;;;;;5097187;28;20054;-88
2022/08/17 04:09:54;;;;;;;24.45;18.02;;;18.30;99.90;;;;;;5097703;27;20044;-89
2022/08/17 04:12:22;;;;;;;20.35;18.00;;;18.80;99.90;;;;;;5080579;28;20043;-88
2022/08/17 04:14:48;;;;;;;20.52;18.15;;;18.20;99.90;;;;;;5097470;28;20051;-89
2022/08/17 04:17:13;;;;;;;25.50;18.33;;;18.20;99.90;;;;;;5098156;28;20043;-88
2022/08/17 04:19:39;;;;;;;21.50;17.95;;;18.20;99.90;;;;;;5097834;28;20047;-88
2022/08/17 04:22:05;;;;;;;44.00;17.63;;;18.10;99.90;;;;;;5081240;28;20047;-89
2022/08/17 04:24:32;;;;;;;20.38;17.10;;;18.20;99.90;;;;;;5081591;27;20080;-90
2022/08/17 04:26:58;;;;;;;20.33;16.80;;;18.10;99.90;;;;;;5098245;28;20469;-90
2022/08/17 04:29:27;;;;;;;32.88;15.82;;;18.10;99.90;;;;;;5096829;28;20540;-88
2022/08/17 04:31:53;;;;;;;17.45;14.75;;;18.10;99.90;;;;;;5092328;28;20050;-88
2022/08/17 04:34:19;;;;;;;31.75;15.27;;;18.10;99.90;;;;;;5091712;28;20055;-89
2022/08/17 04:36:45;;;;;;;35.38;16.85;;;17.80;99.90;;;;;;5092276;28;20047;-88
2022/08/17 04:39:10;;;;;;;29.50;17.20;;;18.10;99.90;;;;;;5075532;28;20080;-90
2022/08/17 04:44:21;;;;;;;46.88;19.05;;;18.10;99.90;;;;;;5095132;28;20429;-89
2022/08/17 04:46:47;;;;;;;27.08;20.90;;;18.40;99.90;;;;;;5075908;28;20043;-88
2022/08/17 04:49:13;;;;;;;29.42;19.40;;;18.10;99.90;;;;;;5075312;28;20039;-88
2022/08/17 04:51:46;;;;;;;24.40;19.75;;;18.10;99.90;;;;;;5077266;27;20041;-89
2022/08/17 04:54:19;;;;;;;24.95;19.13;;;18.20;99.90;;;;;;5113663;27;20108;-88
2022/08/17 04:56:46;;;;;;;23.73;20.60;;;18.20;99.90;;;;;;5097124;27;20119;-89
2022/08/17 04:59:15;;;;;;;29.90;22.20;;;18.20;99.90;;;;;;5097128;27;20428;-88
2022/08/17 05:01:44;;;;;;;23.40;20.48;;;18.30;99.90;;;;;;5096892;27;20039;-89
2022/08/17 05:04:19;;;;;;;27.42;22.63;;;18.30;99.90;;;;;;5103916;27;20027;-89
2022/08/17 05:06:45;;;;;;;27.08;22.13;;;18.40;99.90;;;;;;5104631;27;20043;-90
2022/08/17 05:09:11;;;;;;;28.20;21.42;;;18.60;99.90;;;;;;5088757;27;20212;-89
2022/08/17 05:11:37;;;;;;;25.42;22.13;;;18.50;99.90;;;;;;5083698;27;20247;-89
2022/08/17 05:14:03;;;;;;;30.30;21.48;;;18.50;99.90;;;;;;5079871;27;20046;-89
2022/08/17 05:16:30;;;;;;;30.13;22.00;;;18.60;99.90;;;;;;5079673;27;20073;-89
2022/08/17 05:18:57;;;;;;;30.08;24.00;;;18.60;99.90;;;;;;5113100;27;20042;-89
2022/08/17 05:21:25;;;;;;;36.35;23.27;;;18.70;99.90;;;;;;5095510;27;20069;-89
2022/08/17 05:23:51;;;;;;;25.10;22.10;;;18.70;99.90;;;;;;5095659;27;20083;-88
2022/08/17 05:26:19;;;;;;;29.90;24.15;;;19.00;99.90;;;;;;5095572;27;20043;-88
2022/08/17 05:28:45;;;;;;;33.00;22.95;;;18.80;99.90;;;;;;5095681;27;20129;-90
2022/08/17 05:31:11;;;;;;;27.73;23.42;;;18.80;99.90;;;;;;5095950;27;20077;-89
2022/08/17 05:33:40;;;;;;;34.38;25.02;;;18.80;99.90;;;;;;5079177;27;20467;-90
2022/08/17 05:36:10;;;;;;;28.33;23.17;;;18.90;99.90;;;;;;5091449;28;20440;-90
2022/08/17 05:38:36;;;;;;;28.95;23.77;;;18.90;99.90;;;;;;5092138;28;20096;-89
2022/08/17 05:41:05;;;;;;;25.30;21.48;;;18.90;99.90;;;;;;5075808;28;20122;-89
2022/08/17 05:43:37;;;;;;;25.45;20.52;;;18.90;99.90;;;;;;5092564;28;20047;-89
2022/08/17 05:46:13;;;;;;;25.80;22.17;;;19.10;99.90;;;;;;5092142;28;20043;-89
2022/08/17 05:48:42;;;;;;;28.80;21.88;;;18.90;99.90;;;;;;5091691;28;20058;-89
2022/08/17 05:51:54;;;;;;;24.65;21.80;;;18.90;99.90;;;;;;5091521;28;20051;-89
2022/08/17 05:54:39;;;;;;;31.55;24.13;;;18.90;99.90;;;;;;5091928;28;20442;-88
2022/08/17 05:57:48;;;;;;;28.65;23.70;;;18.90;99.90;;;;;;5108720;28;20074;-89
2022/08/17 06:00:41;;;;;;;33.60;24.52;;;18.90;99.90;;;;;;5091980;28;20459;-89
2022/08/17 06:03:10;;;;;;;34.40;26.83;;;19.20;99.90;;;;;;5092232;28;20051;-89
2022/08/17 06:06:00;;;;;;;29.55;24.40;;;19.00;99.90;;;;;;5091489;28;20502;-89
2022/08/17 06:08:55;;;;;;;28.02;23.90;;;19.00;99.90;;;;;;5091518;28;20063;-89
2022/08/17 06:11:44;;;;;;;31.65;25.60;;;19.10;99.90;;;;;;5084333;28;20051;-89
2022/08/17 06:14:35;;;;;;;31.25;26.38;;;19.10;99.90;;;;;;5080927;28;20503;-89
2022/08/17 06:17:10;;;;;;;29.73;25.75;;;19.10;99.90;;;;;;5091567;28;20097;-89
2022/08/17 06:19:44;;;;;;;33.03;25.63;;;19.10;99.90;;;;;;5091145;28;20286;-89
2022/08/17 06:22:14;;;;;;;28.73;24.73;;;19.20;99.90;;;;;;5091044;28;20421;-88
2022/08/17 06:24:52;;;;;;;31.70;25.90;;;19.20;99.90;;;;;;5091055;28;20062;-88
2022/08/17 06:27:31;;;;;;;33.83;26.65;;;19.20;99.90;;;;;;5091494;28;20039;-89
2022/08/17 06:30:13;;;;;;;42.00;29.00;;;19.20;99.90;;;;;;5090705;28;20132;-88
2022/08/17 06:32:43;;;;;;;34.90;26.83;;;19.20;99.90;;;;;;5090710;28;20044;-88
2022/08/17 06:35:12;;;;;;;35.30;29.58;;;19.20;99.90;;;;;;5090500;28;20078;-88
2022/08/17 06:37:54;;;;;;;45.95;28.05;;;19.20;99.90;;;;;;5090695;28;20040;-89
2022/08/17 06:41:02;;;;;;;39.13;29.13;;;19.20;99.90;;;;;;5091067;28;20054;-88
2022/08/17 06:43:47;;;;;;;38.22;28.63;;;19.30;99.90;;;;;;5090385;28;20048;-88
2022/08/17 06:46:26;;;;;;;44.25;29.48;;;19.30;99.90;;;;;;5090676;28;20051;-89
2022/08/17 06:49:07;;;;;;;35.10;28.60;;;19.30;99.90;;;;;;5090543;28;20027;-89
2022/08/17 06:51:46;;;;;;;33.33;26.95;;;19.30;99.90;;;;;;5090045;28;20047;-89
2022/08/17 06:54:34;;;;;;;42.00;30.90;;;19.40;99.90;;;;;;5107282;28;20083;-88
2022/08/17 06:57:12;;;;;;;33.97;28.98;;;19.40;99.90;;;;;;5090711;28;20444;-88
2022/08/17 06:59:55;;;;;;;37.90;28.92;;;19.50;99.90;;;;;;5090425;28;20054;-87
2022/08/17 07:02:47;;;;;;;39.70;28.73;;;19.40;99.90;;;;;;5090070;28;20521;-87
2022/08/17 07:05:16;;;;;;;25.10;21.47;;;19.50;99.90;;;;;;5107320;28;20126;-88
2022/08/17 07:08:03;;;;;;;44.90;30.63;;;19.50;99.90;;;;;;5073741;28;20119;-90
2022/08/17 07:10:53;;;;;;;33.72;27.77;;;19.60;99.90;;;;;;5091022;28;20050;-91
2022/08/17 07:13:30;;;;;;;36.72;30.65;;;19.60;99.90;;;;;;5090683;28;20112;-91
2022/08/17 07:16:31;;;;;;;37.88;29.85;;;19.60;99.90;;;;;;5090700;28;20035;-91
2022/08/17 07:18:58;;;;;;;48.80;32.53;;;19.60;99.90;;;;;;5073871;28;20055;-90
2022/08/17 07:21:53;;;;;;;40.88;32.15;;;19.70;99.90;;;;;;5073952;28;20070;-92
2022/08/17 07:24:25;;;;;;;38.30;32.58;;;19.80;99.90;;;;;;5094123;28;20043;-90
2022/08/17 07:27:20;;;;;;;45.78;33.03;;;19.80;99.90;;;;;;5101533;28;20101;-90
2022/08/17 07:30:04;;;;;;;47.33;36.35;;;19.90;99.90;;;;;;5102933;28;20040;-90
2022/08/17 07:32:38;;;;;;;49.83;36.72;;;20.10;99.90;;;;;;5107148;28;20043;-92
2022/08/17 07:35:24;;;;;;;58.78;39.80;;;20.10;99.90;;;;;;5104101;28;20044;-91
2022/08/17 07:38:17;;;;;;;49.63;37.58;;;20.20;99.90;;;;;;5102132;28;20035;-91
2022/08/17 07:40:57;;;;;;;56.95;37.30;;;20.30;99.90;;;;;;5121741;28;20078;-91
2022/08/17 07:43:43;;;;;;;58.30;42.13;;;20.30;99.90;;;;;;5103449;28;20043;-90
2022/08/17 07:49:06;;;;;;;65.38;46.00;;;20.40;99.90;;;;;;5116877;28;20043;-91
2022/08/17 07:51:41;;;;;;;73.50;48.53;;;20.50;99.90;;;;;;5100758;28;20051;-92
2022/08/17 07:54:22;;;;;;;78.13;49.00;;;20.50;99.90;;;;;;5101263;28;20077;-91
2022/08/17 07:57:21;;;;;;;80.43;51.28;;;20.50;99.90;;;;;;5099587;28;20043;-90
2022/08/17 07:59:59;;;;;;;67.05;46.17;;;20.50;99.90;;;;;;5099696;28;20052;-92
2022/08/17 08:02:40;;;;;;;59.92;44.13;;;20.60;99.90;;;;;;5100654;28;20039;-91
2022/08/17 08:05:18;;;;;;;65.47;44.80;;;20.70;99.90;;;;;;5117192;28;20390;-91
2022/08/17 08:07:56;;;;;;;64.20;43.92;;;20.40;99.90;;;;;;5101568;28;20035;-91
2022/08/17 08:10:27;;;;;;;55.75;42.75;;;20.80;99.90;;;;;;5099425;28;20040;-91
2022/08/17 08:13:06;;;;;;;60.40;44.25;;;20.90;99.90;;;;;;5099976;28;20044;-90
2022/08/17 08:15:47;;;;;;;54.95;42.15;;;21.10;99.90;;;;;;5100125;28;20096;-92
2022/08/17 08:18:33;;;;;;;53.05;40.22;;;21.20;99.90;;;;;;5099017;28;20529;-90
2022/08/17 08:21:23;;;;;;;51.00;39.55;;;21.30;99.90;;;;;;5100424;28;20138;-90
2022/08/17 08:24:28;;;;;;;52.03;38.58;;;21.60;99.90;;;;;;5100193;28;20507;-90
2022/08/17 08:27:34;;;;;;;49.97;38.35;;;21.60;99.90;;;;;;5102686;28;20048;-91
2022/08/17 08:30:14;;;;;;;51.30;38.15;;;21.70;99.90;;;;;;5105172;28;20130;-91
2022/08/17 08:33:07;;;;;;;47.55;36.33;;;21.80;99.90;;;;;;5122012;28;20458;-90
2022/08/17 08:35:47;;;;;;;43.88;36.63;;;21.90;99.90;;;;;;5104547;28;20101;-92
2022/08/17 08:38:43;;;;;;;45.63;36.05;;;21.90;99.90;;;;;;5122852;28;20055;-91
2022/08/17 08:41:37;;;;;;;46.85;36.00;;;22.00;99.90;;;;;;5106104;28;20549;-90
2022/08/17 08:44:36;;;;;;;43.05;33.40;;;22.20;99.90;;;;;;5109306;28;20138;-91
2022/08/17 08:47:05;;;;;;;43.90;33.97;;;22.40;99.90;;;;;;5084615;28;20075;-89
2022/08/17 08:49:59;;;;;;;39.25;31.90;;;22.50;99.90;;;;;;5125354;28;20066;-90
2022/08/17 08:52:50;;;;;;;34.35;29.75;;;22.70;99.90;;;;;;5107357;28;20058;-91
2022/08/17 08:55:57;;;;;;;34.72;27.83;;;22.70;99.90;;;;;;5124172;28;20044;-91
2022/08/17 08:58:31;;;;;;;37.97;28.63;;;22.70;99.90;;;;;;5067514;28;20047;-90
2022/08/17 09:01:07;;;;;;;36.67;30.63;;;22.70;99.90;;;;;;5119614;28;20043;-91
2022/08/17 09:03:44;;;;;;;35.20;29.88;;;22.70;99.90;;;;;;5100218;28;20112;-89
2022/08/17 09:06:31;;;;;;;36.72;28.83;;;22.70;99.90;;;;;;5118077;28;20122;-92
2022/08/17 09:09:20;;;;;;;31.98;27.58;;;22.70;99.90;;;;;;5102133;28;20043;-89
2022/08/17 09:12:01;;;;;;;35.80;29.13;;;22.60;99.90;;;;;;5104043;28;20048;-91
2022/08/17 09:14:37;;;;;;;32.53;26.83;;;22.50;99.90;;;;;;5102695;28;20049;-90
2022/08/17 09:17:23;;;;;;;36.45;27.67;;;22.50;99.90;;;;;;5119369;28;20536;-91
2022/08/17 09:20:03;;;;;;;36.92;27.73;;;22.10;99.90;;;;;;5100006;28;20109;-90
2022/08/17 09:22:31;;;;;;;28.50;25.30;;;22.50;99.90;;;;;;5099034;28;20052;-91
2022/08/17 09:25:05;;;;;;;35.60;27.95;;;22.60;99.90;;;;;;5115551;28;20043;-90
2022/08/17 09:28:15;;;;;;;35.40;28.50;;;22.60;99.90;;;;;;5098495;28;20046;-90
2022/08/17 09:30:44;;;;;;;34.75;29.40;;;22.60;99.90;;;;;;5114637;28;20048;-91
2022/08/17 09:33:14;;;;;;;33.78;28.80;;;22.60;99.90;;;;;;5098783;28;20520;-91
2022/08/17 09:36:08;;;;;;;33.65;28.60;;;22.70;99.90;;;;;;5098088;28;20087;-90
2022/08/17 09:38:52;;;;;;;34.47;28.30;;;22.80;99.90;;;;;;5088203;28;20047;-90
2022/08/17 09:41:30;;;;;;;31.52;28.08;;;22.90;99.90;;;;;;5116113;28;20495;-92
2022/08/17 09:44:05;;;;;;;35.88;28.60;;;23.10;99.90;;;;;;5098633;28;20051;-93
2022/08/17 09:46:39;;;;;;;32.05;27.77;;;23.30;99.90;;;;;;5116234;28;20044;-91
2022/08/17 09:49:19;;;;;;;36.03;28.38;;;23.50;99.90;;;;;;5098791;28;20047;-92
2022/08/17 09:51:52;;;;;;;32.88;27.70;;;23.70;99.90;;;;;;5098608;28;20069;-91
2022/08/17 09:54:34;;;;;;;30.73;26.08;;;23.70;99.90;;;;;;5099259;28;20127;-91
2022/08/17 09:57:23;;;;;;;27.48;23.83;;;23.70;99.90;;;;;;5098209;28;20044;-91
2022/08/17 09:59:49;;;;;;;25.17;21.98;;;23.60;99.90;;;;;;5115778;28;20260;-92
2022/08/17 10:02:54;;;;;;;28.83;22.00;;;23.60;99.90;;;;;;5096583;28;20083;-91
2022/08/17 10:05:36;;;;;;;27.50;22.58;;;23.50;99.90;;;;;;5092787;28;20043;-91
2022/08/17 10:08:24;;;;;;;26.00;22.25;;;23.50;99.90;;;;;;5093682;28;20040;-91
2022/08/17 10:11:18;;;;;;;31.30;22.05;;;23.40;99.90;;;;;;5110330;28;20052;-90
2022/08/17 10:13:53;;;;;;;29.80;23.05;;;23.40;99.90;;;;;;5092350;28;20560;-91
2022/08/17 10:16:44;;;;;;;26.48;22.13;;;23.30;99.90;;;;;;5092722;28;20055;-90
2022/08/17 10:20:02;;;;;;;29.02;21.77;;;23.20;99.90;;;;;;5109898;28;20047;-90
2022/08/17 10:28:09;;;;;;;29.10;24.58;;;22.90;99.90;;;;;;5095579;28;20043;-90
2022/08/17 10:30:54;;;;;;;26.02;23.00;;;22.80;99.90;;;;;;5091622;28;20043;-91
2022/08/17 10:33:24;;;;;;;30.65;23.80;;;22.70;99.90;;;;;;5109426;28;20084;-91
2022/08/17 10:35:56;;;;;;;29.42;23.00;;;22.70;99.90;;;;;;5108931;28;20055;-91
2022/08/17 10:38:24;;;;;;;29.45;23.77;;;22.70;99.90;;;;;;5109533;28;20134;-91
2022/08/17 10:41:11;;;;;;;26.25;22.77;;;22.70;99.90;;;;;;5109594;28;20044;-90
2022/08/17 10:43:59;;;;;;;24.65;21.08;;;22.80;99.90;;;;;;5108357;28;20109;-92
2022/08/17 10:46:53;;;;;;;26.33;22.20;;;22.90;99.90;;;;;;5092608;28;20044;-90
2022/08/17 10:49:21;;;;;;;23.27;20.83;;;23.00;99.90;;;;;;5091146;28;20418;-92
2022/08/17 10:51:53;;;;;;;22.60;19.20;;;23.20;99.90;;;;;;5091401;28;20052;-91
2022/08/17 10:54:36;;;;;;;19.73;17.58;;;23.30;99.90;;;;;;5109083;28;20489;-91
2022/08/17 10:57:21;;;;;;;21.95;17.92;;;23.30;99.90;;;;;;5091615;28;20049;-91
2022/08/17 10:59:50;;;;;;;19.20;16.65;;;23.40;99.90;;;;;;5094688;28;20040;-90
2022/08/17 11:02:21;;;;;;;27.27;16.83;;;23.40;99.90;;;;;;5091855;28;20191;-91
2022/08/17 11:04:52;;;;;;;21.23;16.30;;;23.40;99.90;;;;;;5091386;28;20044;-91
2022/08/17 11:07:37;;;;;;;18.88;16.33;;;23.40;99.90;;;;;;5092259;28;20092;-91
2022/08/17 11:10:34;;;;;;;19.88;14.85;;;23.40;99.90;;;;;;5108295;28;20079;-90
2022/08/17 11:13:00;;;;;;;24.95;16.15;;;23.40;99.90;;;;;;5108308;28;20043;-90
2022/08/17 11:15:36;;;;;;;24.30;14.35;;;23.40;99.90;;;;;;5108757;28;20139;-91
2022/08/17 11:18:16;;;;;;;22.58;13.95;;;23.50;99.90;;;;;;5090632;28;20039;-90
2022/08/17 11:20:58;;;;;;;17.40;12.93;;;23.60;99.90;;;;;;5091531;28;20060;-92
2022/08/17 11:23:58;;;;;;;13.07;11.27;;;23.70;99.90;;;;;;5091771;28;20051;-90
2022/08/17 11:26:33;;;;;;;12.52;10.40;;;23.80;99.90;;;;;;5090117;28;20040;-91
2022/08/17 11:29:09;;;;;;;16.63;10.75;;;24.00;99.90;;;;;;5108150;28;20048;-91
2022/08/17 11:31:39;;;;;;;15.20;10.43;;;24.10;99.90;;;;;;5090949;28;20043;-90
2022/08/17 11:34:21;;;;;;;19.75;10.63;;;24.30;99.90;;;;;;5108850;27;20043;-91
2022/08/17 11:37:12;;;;;;;15.85;10.32;;;24.50;99.90;;;;;;5095443;27;20063;-90
2022/08/17 11:40:05;;;;;;;13.18;9.10;;;24.60;99.90;;;;;;5095281;27;20051;-91
2022/08/17 11:43:02;;;;;;;12.80;9.20;;;24.80;99.90;;;;;;5094904;27;20043;-91
2022/08/17 11:45:35;;;;;;;10.38;8.38;;;24.90;99.90;;;;;;5117405;27;20080;-91
2022/08/17 11:51:33;;;;;;;14.15;9.85;;;24.80;99.90;;;;;;5120425;27;20131;-90
2022/08/17 11:54:08;;;;;;;11.05;8.70;;;24.90;99.90;;;;;;5098949;27;20047;-91
2022/08/17 11:56:47;;;;;;;13.95;9.60;;;24.90;99.90;;;;;;5096769;27;20502;-91
2022/08/17 11:59:31;;;;;;;13.82;10.77;;;25.00;99.90;;;;;;5096275;27;20381;-91
2022/08/17 12:01:59;;;;;;;15.27;10.00;;;24.90;99.90;;;;;;5094659;27;20043;-90
2022/08/17 12:04:30;;;;;;;15.20;11.30;;;24.80;99.90;;;;;;5095185;27;20100;-91
2022/08/17 12:07:20;;;;;;;13.85;12.23;;;24.70;99.90;;;;;;5112605;28;20045;-89
2022/08/17 12:09:49;;;;;;;14.15;12.02;;;24.60;99.90;;;;;;5093738;27;20138;-89
2022/08/17 12:12:28;;;;;;;16.05;12.63;;;24.50;99.90;;;;;;5111406;27;20084;-90
2022/08/17 12:14:56;;;;;;;16.50;14.13;;;24.50;99.90;;;;;;5111040;28;20455;-91
2022/08/17 12:17:25;;;;;;;17.45;13.43;;;24.60;99.90;;;;;;5094609;28;20039;-90
2022/08/17 12:19:52;;;;;;;16.20;12.77;;;24.30;99.90;;;;;;5096038;27;20122;-91
2022/08/17 12:22:31;;;;;;;15.55;11.63;;;24.70;99.90;;;;;;5096923;28;20071;-92
2022/08/17 12:25:12;;;;;;;12.25;10.02;;;24.70;99.90;;;;;;5100817;28;20043;-91
2022/08/17 12:27:49;;;;;;;11.07;8.18;;;24.70;99.90;;;;;;5102506;28;20039;-90
2022/08/17 12:30:19;;;;;;;11.77;8.95;;;24.80;99.90;;;;;;5118078;28;20137;-90
2022/08/17 12:32:47;;;;;;;13.10;11.13;;;24.90;99.90;;;;;;5112716;28;20039;-90
2022/08/17 12:35:33;;;;;;;14.30;11.73;;;24.80;99.90;;;;;;5093797;28;20131;-93
2022/08/17 12:38:00;;;;;;;13.73;10.30;;;24.80;99.90;;;;;;5094470;28;20407;-91
2022/08/17 12:40:31;;;;;;;14.73;11.65;;;24.80;99.90;;;;;;5110736;28;20367;-90
2022/08/17 12:43:05;;;;;;;17.63;12.60;;;24.70;99.90;;;;;;5076762;28;20126;-90
2022/08/17 12:45:34;;;;;;;16.20;12.65;;;24.70;99.90;;;;;;5110867;28;20047;-90
2022/08/17 12:48:13;;;;;;;18.58;11.18;;;24.70;99.90;;;;;;5109578;28;20046;-91
2022/08/17 12:50:43;;;;;;;15.40;11.00;;;24.70;99.90;;;;;;5093452;28;20520;-90
2022/08/17 12:53:35;;;;;;;18.20;11.90;;;24.70;99.90;;;;;;5094569;28;20039;-91
2022/08/17 12:56:08;;;;;;;11.70;10.45;;;24.60;99.90;;;;;;5095296;28;20058;-90
2022/08/17 12:58:46;;;;;;;13.48;9.73;;;24.60;99.90;;;;;;5100236;28;20103;-91
2022/08/17 13:01:18;;;;;;;10.20;8.40;;;24.60;99.90;;;;;;5116757;28;20050;-90
2022/08/17 13:03:51;;;;;;;10.50;9.07;;;24.60;99.90;;;;;;5116469;28;20087;-91
2022/08/17 13:06:30;;;;;;;14.13;8.90;;;24.70;99.90;;;;;;5099219;28;20054;-90
2022/08/17 13:09:06;;;;;;;12.07;9.38;;;24.70;99.90;;;;;;5116882;28;20050;-90
2022/08/17 13:11:32;;;;;;;13.80;9.48;;;24.60;99.90;;;;;;5119267;27;20076;-90
2022/08/17 13:14:09;;;;;;;14.57;10.15;;;24.60;99.90;;;;;;5105004;27;20074;-89
2022/08/17 13:16:35;;;;;;;11.68;9.48;;;24.60;99.90;;;;;;5122472;27;20125;-90
2022/08/17 13:19:08;;;;;;;11.60;9.43;;;24.50;99.90;;;;;;5105867;27;20405;-91
2022/08/17 13:21:36;;;;;;;10.48;8.90;;;24.40;99.90;;;;;;5124173;27;20470;-89
2022/08/17 13:24:06;;;;;;;15.95;9.65;;;24.40;99.90;;;;;;5106837;27;20036;-90
2022/08/17 13:26:37;;;;;;;10.85;8.55;;;24.40;99.90;;;;;;5107547;27;20079;-90
2022/08/17 13:29:19;;;;;;;12.00;8.50;;;24.00;99.90;;;;;;5124320;27;20142;-90
2022/08/17 13:31:45;;;;;;;11.40;8.40;;;24.40;99.90;;;;;;5123995;27;20285;-91
2022/08/17 13:34:24;;;;;;;11.55;8.07;;;24.40;99.90;;;;;;5105731;27;20039;-90